Time;durP1;ratioP1;P1;durP2;ratioP2;P2;SDS_P1;SDS_P2;PMS_P1;PMS_P2;Temp;Humidity;BMP_temperature;BMP_pressure;BME280_temperature;BME280_humidity;BME280_pressure;Samples;Min_cycle;Max_cycle;Signal;HPM_P1;HPM_P2
2023/12/09 00:02:09;;;;;;;3.97;1.95;;;6.90;99.90;;;;;;5114644;28;20430;-58
2023/12/09 00:04:37;;;;;;;4.40;2.10;;;6.90;99.90;;;;;;5114401;28;20432;-57
2023/12/09 00:07:04;;;;;;;2.85;1.90;;;6.90;99.90;;;;;;5114198;28;20416;-57
2023/12/09 00:09:32;;;;;;;3.90;2.10;;;6.90;99.90;;;;;;5114588;28;20411;-55
2023/12/09 00:11:59;;;;;;;4.72;2.30;;;6.90;99.90;;;;;;5115065;28;20920;-55
2023/12/09 00:14:26;;;;;;;3.70;1.98;;;6.90;99.90;;;;;;5115112;28;20432;-55
2023/12/09 00:16:53;;;;;;;2.83;2.00;;;6.90;99.90;;;;;;5115044;28;20771;-56
2023/12/09 00:19:20;;;;;;;5.50;2.40;;;6.90;99.90;;;;;;5115845;28;20866;-58
2023/12/09 00:21:48;;;;;;;4.10;1.63;;;6.90;99.90;;;;;;5116070;28;20415;-56
2023/12/09 00:24:15;;;;;;;5.10;1.83;;;6.90;99.90;;;;;;5115955;28;20431;-56
2023/12/09 00:26:43;;;;;;;4.57;2.10;;;6.90;99.90;;;;;;5115432;28;20420;-57
2023/12/09 00:29:10;;;;;;;5.03;1.80;;;6.90;99.90;;;;;;5115409;28;20420;-55
2023/12/09 00:31:37;;;;;;;5.60;2.15;;;6.90;99.90;;;;;;5113871;28;20431;-57
2023/12/09 00:34:04;;;;;;;3.60;1.88;;;6.90;99.90;;;;;;5115125;28;20424;-57
2023/12/09 00:36:31;;;;;;;4.88;2.05;;;6.90;99.90;;;;;;5113373;28;20858;-56
2023/12/09 00:38:59;;;;;;;5.10;2.08;;;6.80;99.90;;;;;;5115150;28;20427;-56
2023/12/09 00:41:26;;;;;;;3.40;2.03;;;6.80;99.90;;;;;;5115824;28;20427;-57
2023/12/09 00:43:53;;;;;;;3.50;1.67;;;6.80;99.90;;;;;;5115605;28;20424;-53
2023/12/09 00:46:22;;;;;;;4.93;2.03;;;6.80;99.90;;;;;;5114129;28;20415;-56
2023/12/09 00:48:49;;;;;;;4.47;2.15;;;6.80;99.90;;;;;;5114513;28;20915;-55
2023/12/09 00:51:16;;;;;;;4.30;2.22;;;6.90;99.90;;;;;;5111571;28;20438;-58
2023/12/09 00:53:43;;;;;;;5.20;2.42;;;6.90;99.90;;;;;;5094852;28;20479;-57
2023/12/09 00:56:12;;;;;;;4.53;2.30;;;6.80;99.90;;;;;;5094374;28;20445;-56
2023/12/09 00:58:40;;;;;;;5.00;2.60;;;6.80;99.90;;;;;;5094070;28;20429;-57
2023/12/09 01:01:07;;;;;;;7.38;2.70;;;6.80;99.90;;;;;;5094685;28;20413;-57
2023/12/09 01:03:34;;;;;;;4.30;2.40;;;6.70;99.90;;;;;;5094029;28;20483;-55
2023/12/09 01:06:01;;;;;;;4.77;2.40;;;6.70;99.90;;;;;;5094264;28;20440;-57
2023/12/09 01:08:29;;;;;;;5.93;2.13;;;6.60;99.90;;;;;;5095174;28;20421;-54
2023/12/09 01:10:56;;;;;;;3.88;2.00;;;6.70;99.90;;;;;;5094726;28;20433;-55
2023/12/09 01:13:24;;;;;;;3.92;2.35;;;6.80;99.90;;;;;;5094517;28;20421;-56
2023/12/09 01:15:52;;;;;;;3.00;1.67;;;6.90;99.90;;;;;;5095053;28;20449;-57
2023/12/09 01:18:19;;;;;;;4.17;2.00;;;7.00;99.90;;;;;;5094589;28;20426;-56
2023/12/09 01:20:46;;;;;;;4.00;1.90;;;7.10;99.90;;;;;;5094780;28;20424;-57
2023/12/09 01:23:13;;;;;;;4.32;1.70;;;7.10;99.90;;;;;;5094327;28;20425;-58
2023/12/09 01:25:41;;;;;;;3.83;2.00;;;7.20;99.90;;;;;;5093721;28;20486;-54
2023/12/09 01:28:08;;;;;;;4.32;1.75;;;7.20;99.90;;;;;;5093046;28;20414;-55
2023/12/09 01:30:36;;;;;;;3.80;1.60;;;7.10;99.90;;;;;;5092550;28;20429;-56
2023/12/09 01:33:03;;;;;;;3.33;1.60;;;7.00;99.90;;;;;;5093441;28;20432;-57
2023/12/09 01:35:30;;;;;;;3.63;1.75;;;7.00;99.90;;;;;;5094338;28;20425;-56
2023/12/09 01:37:57;;;;;;;3.85;1.90;;;6.90;99.90;;;;;;5094496;28;20421;-56
2023/12/09 01:40:24;;;;;;;3.10;1.50;;;7.00;99.90;;;;;;5094476;28;20419;-58
2023/12/09 01:42:51;;;;;;;3.42;1.70;;;7.00;99.90;;;;;;5094931;28;20409;-54
2023/12/09 01:45:18;;;;;;;4.25;2.10;;;6.90;99.90;;;;;;5097097;28;20421;-56
2023/12/09 01:47:47;;;;;;;4.28;1.60;;;6.80;99.90;;;;;;5098346;28;20422;-55
2023/12/09 01:50:16;;;;;;;3.92;1.50;;;6.70;99.90;;;;;;5098382;28;20428;-56
2023/12/09 01:52:43;;;;;;;4.22;1.70;;;6.70;99.90;;;;;;5113840;28;20423;-54
2023/12/09 01:55:12;;;;;;;6.67;2.00;;;6.70;99.90;;;;;;5118371;28;20423;-56
2023/12/09 01:57:39;;;;;;;3.80;1.55;;;6.70;99.90;;;;;;5118318;28;20423;-57
2023/12/09 02:00:08;;;;;;;3.33;1.60;;;6.70;99.90;;;;;;5118433;28;20424;-57
2023/12/09 02:02:35;;;;;;;5.32;2.03;;;6.80;99.90;;;;;;5117449;28;20481;-57
2023/12/09 02:05:04;;;;;;;3.28;1.45;;;6.90;99.90;;;;;;5117986;28;20420;-56
2023/12/09 02:07:33;;;;;;;2.70;1.77;;;7.00;99.90;;;;;;5118028;28;20427;-55
2023/12/09 02:10:01;;;;;;;3.70;1.80;;;6.90;99.90;;;;;;5116524;28;20412;-56
2023/12/09 02:12:33;;;;;;;2.17;1.30;;;6.80;99.90;;;;;;5115880;28;20431;-56
2023/12/09 02:15:05;;;;;;;4.78;1.80;;;6.70;99.90;;;;;;5115833;28;20831;-57
2023/12/09 02:17:35;;;;;;;4.72;1.80;;;6.70;99.90;;;;;;5116287;28;20424;-57
2023/12/09 02:20:06;;;;;;;3.90;1.65;;;6.70;99.90;;;;;;5116669;28;20431;-56
2023/12/09 02:22:33;;;;;;;4.30;2.00;;;6.70;99.90;;;;;;5117031;28;20419;-56
2023/12/09 02:25:02;;;;;;;2.50;1.40;;;6.70;99.90;;;;;;5117189;28;20408;-56
2023/12/09 02:27:33;;;;;;;4.07;2.20;;;6.70;99.90;;;;;;5117615;28;20986;-54
2023/12/09 02:30:09;;;;;;;2.80;1.70;;;6.60;99.90;;;;;;5116895;28;20420;-57
2023/12/09 02:32:38;;;;;;;3.63;1.70;;;6.70;99.90;;;;;;5114588;28;20647;-55
2023/12/09 02:35:07;;;;;;;3.97;1.70;;;6.70;99.90;;;;;;5114954;28;20428;-57
2023/12/09 02:37:36;;;;;;;3.42;1.40;;;6.70;99.90;;;;;;5115578;28;20427;-57
2023/12/09 02:40:09;;;;;;;3.17;1.48;;;6.70;99.90;;;;;;5116412;28;20412;-56
2023/12/09 02:42:37;;;;;;;4.03;1.60;;;6.70;99.90;;;;;;5108384;28;20996;-55
2023/12/09 02:45:06;;;;;;;4.00;1.40;;;6.70;99.90;;;;;;5104222;28;20417;-53
2023/12/09 02:47:33;;;;;;;2.90;1.10;;;6.70;99.90;;;;;;5095937;28;20425;-54
2023/12/09 02:50:00;;;;;;;1.77;1.00;;;6.80;99.90;;;;;;5094680;28;20495;-56
2023/12/09 02:52:27;;;;;;;2.00;1.10;;;6.90;99.90;;;;;;5095568;28;20434;-56
2023/12/09 02:54:54;;;;;;;3.40;0.95;;;6.90;99.90;;;;;;5096361;28;20724;-57
2023/12/09 02:57:22;;;;;;;2.70;1.10;;;6.90;99.90;;;;;;5102134;28;20819;-56
2023/12/09 02:59:49;;;;;;;3.53;1.10;;;7.00;99.90;;;;;;5116195;28;20427;-57
2023/12/09 03:02:16;;;;;;;3.42;1.40;;;7.00;99.90;;;;;;5115558;28;20474;-57
2023/12/09 03:04:43;;;;;;;2.45;1.10;;;7.00;99.90;;;;;;5116918;28;20416;-57
2023/12/09 03:07:10;;;;;;;2.60;1.00;;;7.00;99.90;;;;;;5116800;28;20412;-56
2023/12/09 03:09:37;;;;;;;3.50;1.00;;;7.00;99.90;;;;;;5117381;28;20419;-56
2023/12/09 03:12:05;;;;;;;1.70;1.00;;;7.00;99.90;;;;;;5117118;28;20432;-57
2023/12/09 03:14:34;;;;;;;2.30;1.00;;;6.90;99.90;;;;;;5116640;28;20727;-56
2023/12/09 03:17:01;;;;;;;2.70;1.10;;;6.90;99.90;;;;;;5116054;28;20790;-55
2023/12/09 03:19:28;;;;;;;3.88;1.10;;;6.80;99.90;;;;;;5116235;28;20424;-55
2023/12/09 03:21:55;;;;;;;3.13;1.10;;;6.80;99.90;;;;;;5117174;28;20404;-56
2023/12/09 03:24:22;;;;;;;2.22;1.10;;;6.80;99.90;;;;;;5116781;28;20424;-56
2023/12/09 03:26:50;;;;;;;4.00;1.17;;;6.90;99.90;;;;;;5116353;28;20428;-55
2023/12/09 03:29:17;;;;;;;2.40;0.90;;;6.90;99.90;;;;;;5117320;28;20427;-56
2023/12/09 03:31:46;;;;;;;1.75;0.80;;;7.00;99.90;;;;;;5118499;27;20432;-57
2023/12/09 03:34:14;;;;;;;4.05;0.90;;;7.00;99.90;;;;;;5125530;27;20412;-57
2023/12/09 03:36:41;;;;;;;1.80;0.80;;;7.10;99.90;;;;;;5114879;28;20424;-57
2023/12/09 03:39:09;;;;;;;2.78;1.10;;;7.20;99.90;;;;;;5115977;28;20487;-55
2023/12/09 03:41:36;;;;;;;1.58;0.75;;;7.20;99.90;;;;;;5115498;28;20450;-58
2023/12/09 03:44:04;;;;;;;1.73;0.80;;;7.30;99.90;;;;;;5114764;28;20430;-57
2023/12/09 03:46:31;;;;;;;2.58;0.90;;;7.20;99.90;;;;;;5121060;27;20437;-57
2023/12/09 03:49:00;;;;;;;1.30;0.80;;;7.20;99.90;;;;;;5115245;27;20446;-56
2023/12/09 03:51:27;;;;;;;2.90;1.35;;;7.10;99.90;;;;;;5116277;28;20432;-58
2023/12/09 03:53:54;;;;;;;4.65;0.90;;;7.00;99.90;;;;;;5117317;27;20435;-55
2023/12/09 03:56:22;;;;;;;1.75;0.70;;;6.90;99.90;;;;;;5115726;27;20531;-57
2023/12/09 03:58:50;;;;;;;1.53;0.70;;;6.80;99.90;;;;;;5116048;28;20518;-58
2023/12/09 04:01:17;;;;;;;1.60;0.70;;;6.70;99.90;;;;;;5114157;28;20416;-57
2023/12/09 04:03:44;;;;;;;1.40;0.80;;;6.70;99.90;;;;;;5114400;28;20975;-56
2023/12/09 04:06:13;;;;;;;1.90;0.90;;;6.70;99.90;;;;;;5115218;28;20459;-60
2023/12/09 04:08:40;;;;;;;2.90;0.80;;;6.70;99.90;;;;;;5113168;28;20420;-58
2023/12/09 04:11:07;;;;;;;2.40;0.80;;;6.70;99.90;;;;;;5115416;28;20995;-55
2023/12/09 04:13:34;;;;;;;3.00;0.77;;;6.70;99.90;;;;;;5116780;28;20828;-60
2023/12/09 04:16:00;;;;;;;2.22;0.90;;;6.60;99.90;;;;;;5116594;28;20764;-56
2023/12/09 04:18:28;;;;;;;2.85;0.80;;;6.60;99.90;;;;;;5116176;28;20840;-57
2023/12/09 04:20:56;;;;;;;1.90;0.90;;;6.50;99.90;;;;;;5112337;28;20516;-57
2023/12/09 04:23:24;;;;;;;3.30;0.90;;;6.50;99.90;;;;;;5112615;28;20831;-58
2023/12/09 04:25:51;;;;;;;4.10;1.10;;;6.50;99.90;;;;;;5111777;28;20781;-55
2023/12/09 04:28:19;;;;;;;1.90;0.90;;;6.40;99.90;;;;;;5113011;28;20404;-57
2023/12/09 04:30:46;;;;;;;3.63;0.90;;;6.50;99.90;;;;;;5113679;28;20876;-50
2023/12/09 04:33:13;;;;;;;3.10;0.80;;;6.50;99.90;;;;;;5114102;28;20866;-56
2023/12/09 04:35:40;;;;;;;1.65;0.80;;;6.50;99.90;;;;;;5115553;28;20428;-57
2023/12/09 04:38:07;;;;;;;1.95;0.90;;;6.50;99.90;;;;;;5115698;28;20426;-57
2023/12/09 04:40:35;;;;;;;1.90;0.68;;;6.50;99.90;;;;;;5113166;28;20428;-58
2023/12/09 04:43:03;;;;;;;2.08;0.80;;;6.50;99.90;;;;;;5113958;28;20431;-57
2023/12/09 04:45:30;;;;;;;2.00;0.80;;;6.50;99.90;;;;;;5113896;28;20839;-55
2023/12/09 04:47:59;;;;;;;4.43;0.80;;;6.50;99.90;;;;;;5113564;28;20428;-57
2023/12/09 04:50:26;;;;;;;2.45;0.70;;;6.50;99.90;;;;;;5114365;28;20424;-57
2023/12/09 04:52:53;;;;;;;2.30;0.80;;;6.50;99.90;;;;;;5113261;28;20709;-61
2023/12/09 04:55:20;;;;;;;1.98;0.80;;;6.50;99.90;;;;;;5113377;28;20867;-56
2023/12/09 04:57:48;;;;;;;1.38;0.70;;;6.50;99.90;;;;;;5114854;28;20711;-58
2023/12/09 05:00:16;;;;;;;3.20;0.70;;;6.50;99.90;;;;;;5115115;28;20855;-57
2023/12/09 05:02:44;;;;;;;1.45;0.80;;;6.50;99.90;;;;;;5114452;28;20428;-57
2023/12/09 05:05:11;;;;;;;2.70;0.73;;;6.50;99.90;;;;;;5113933;28;20460;-58
2023/12/09 05:07:38;;;;;;;1.58;0.70;;;6.60;99.90;;;;;;5114345;28;20416;-58
2023/12/09 05:10:06;;;;;;;2.80;0.70;;;6.60;99.90;;;;;;5114592;28;20411;-57
2023/12/09 05:12:33;;;;;;;2.47;0.70;;;6.60;99.90;;;;;;5114447;28;20732;-58
2023/12/09 05:15:01;;;;;;;2.60;0.70;;;6.60;99.90;;;;;;5114621;28;20742;-57
2023/12/09 05:17:29;;;;;;;3.47;0.70;;;6.60;99.90;;;;;;5114640;28;20423;-58
2023/12/09 05:19:56;;;;;;;2.30;0.70;;;6.60;99.90;;;;;;5114584;28;20435;-56
2023/12/09 05:22:23;;;;;;;1.30;0.70;;;6.60;99.90;;;;;;5114615;28;20408;-58
2023/12/09 05:24:50;;;;;;;2.17;0.70;;;6.60;99.90;;;;;;5113968;28;20918;-58
2023/12/09 05:27:18;;;;;;;2.22;0.80;;;6.60;99.90;;;;;;5113034;28;20579;-54
2023/12/09 05:29:45;;;;;;;1.90;0.60;;;6.60;99.90;;;;;;5113893;28;20431;-54
2023/12/09 05:32:13;;;;;;;2.50;0.70;;;6.60;99.90;;;;;;5113729;28;20435;-57
2023/12/09 05:34:40;;;;;;;1.90;0.70;;;6.60;99.90;;;;;;5113098;28;20893;-58
2023/12/09 05:37:07;;;;;;;2.78;0.70;;;6.60;99.90;;;;;;5100277;28;20452;-56
2023/12/09 05:39:35;;;;;;;2.30;0.70;;;6.60;99.90;;;;;;5093969;28;20802;-57
2023/12/09 05:42:04;;;;;;;2.30;0.70;;;6.60;99.90;;;;;;5093790;28;20429;-57
2023/12/09 05:44:31;;;;;;;3.10;0.80;;;6.60;99.90;;;;;;5094731;28;20426;-57
2023/12/09 05:46:58;;;;;;;1.40;0.70;;;6.60;99.90;;;;;;5094415;28;20428;-58
2023/12/09 05:49:27;;;;;;;1.80;0.70;;;6.60;99.90;;;;;;5093931;28;20430;-58
2023/12/09 05:51:54;;;;;;;1.13;0.60;;;6.60;99.90;;;;;;5103631;28;20466;-58
2023/12/09 05:54:21;;;;;;;1.52;0.70;;;6.60;99.90;;;;;;5114667;28;20434;-57
2023/12/09 05:56:51;;;;;;;1.77;0.60;;;6.60;99.90;;;;;;5114517;28;20416;-58
2023/12/09 05:59:19;;;;;;;1.45;0.70;;;6.60;99.90;;;;;;5114008;28;20455;-58
2023/12/09 06:01:46;;;;;;;2.05;0.70;;;6.70;99.90;;;;;;5114222;28;20424;-58
2023/12/09 06:04:13;;;;;;;1.23;0.60;;;6.70;99.90;;;;;;5114231;28;20412;-58
2023/12/09 06:06:41;;;;;;;1.30;0.60;;;6.60;99.90;;;;;;5114207;28;20412;-57
2023/12/09 06:09:09;;;;;;;1.25;0.70;;;6.60;99.90;;;;;;5113329;28;20419;-57
2023/12/09 06:11:36;;;;;;;1.50;0.65;;;6.60;99.90;;;;;;5114066;28;20420;-58
2023/12/09 06:14:04;;;;;;;2.40;0.70;;;6.60;99.90;;;;;;5112451;28;20442;-57
2023/12/09 06:16:31;;;;;;;1.77;0.70;;;6.60;99.90;;;;;;5112482;28;20407;-58
2023/12/09 06:18:58;;;;;;;2.40;0.70;;;6.70;99.90;;;;;;5111500;28;20422;-59
2023/12/09 06:21:26;;;;;;;1.70;0.60;;;6.60;99.90;;;;;;5114512;28;20443;-59
2023/12/09 06:23:55;;;;;;;1.70;0.70;;;6.60;99.90;;;;;;5114622;28;20839;-59
2023/12/09 06:26:22;;;;;;;2.40;0.70;;;6.60;99.90;;;;;;5114294;28;20503;-58
2023/12/09 06:28:49;;;;;;;1.80;0.60;;;6.60;99.90;;;;;;5114988;28;20715;-59
2023/12/09 06:31:16;;;;;;;2.45;0.60;;;6.50;99.90;;;;;;5095957;28;20418;-58
2023/12/09 06:33:44;;;;;;;1.17;0.60;;;6.50;99.90;;;;;;5096435;28;20429;-58
2023/12/09 06:36:11;;;;;;;1.80;0.70;;;6.50;99.90;;;;;;5100315;28;20424;-59
2023/12/09 06:38:39;;;;;;;2.70;0.60;;;6.50;99.90;;;;;;5116158;28;20424;-59
2023/12/09 06:41:08;;;;;;;1.90;0.60;;;6.50;99.90;;;;;;5116408;28;20420;-58
2023/12/09 06:43:35;;;;;;;1.83;0.60;;;6.50;99.90;;;;;;5117187;28;20427;-58
2023/12/09 06:46:03;;;;;;;2.70;0.70;;;6.50;99.90;;;;;;5116539;28;20416;-58
2023/12/09 06:48:30;;;;;;;1.52;0.70;;;6.40;99.90;;;;;;5117075;28;20412;-58
2023/12/09 06:50:57;;;;;;;2.35;0.60;;;6.50;99.90;;;;;;5118107;28;20420;-58
2023/12/09 06:53:24;;;;;;;1.95;0.60;;;6.40;99.90;;;;;;5118281;28;20432;-59
2023/12/09 06:55:51;;;;;;;1.00;0.60;;;6.50;99.90;;;;;;5116705;28;20420;-58
2023/12/09 06:58:19;;;;;;;1.85;0.60;;;6.40;99.90;;;;;;5116719;28;20412;-58
2023/12/09 07:00:47;;;;;;;1.30;0.60;;;6.50;99.90;;;;;;5111229;27;20440;-57
2023/12/09 07:03:14;;;;;;;1.88;0.70;;;6.50;99.90;;;;;;5113972;28;20434;-58
2023/12/09 07:05:41;;;;;;;1.50;0.60;;;6.50;99.90;;;;;;5114648;28;20440;-58
2023/12/09 07:08:10;;;;;;;2.23;0.60;;;6.50;99.90;;;;;;5115432;28;20420;-57
2023/12/09 07:10:37;;;;;;;3.50;0.60;;;6.50;99.90;;;;;;5112758;28;21097;-55
2023/12/09 07:13:05;;;;;;;0.98;0.60;;;6.50;99.90;;;;;;5113139;28;20900;-56
2023/12/09 07:15:33;;;;;;;1.90;0.50;;;6.50;99.90;;;;;;5112535;28;20940;-57
2023/12/09 07:18:00;;;;;;;0.80;0.50;;;6.50;99.90;;;;;;5113884;28;20420;-57
2023/12/09 07:20:28;;;;;;;1.83;0.50;;;6.50;99.90;;;;;;5112851;28;20433;-57
2023/12/09 07:22:55;;;;;;;1.20;0.50;;;6.50;99.90;;;;;;5113737;28;20412;-57
2023/12/09 07:25:23;;;;;;;1.30;0.50;;;6.50;99.90;;;;;;5113796;28;20831;-57
2023/12/09 07:27:51;;;;;;;2.63;0.60;;;6.50;99.90;;;;;;5115330;28;20448;-57
2023/12/09 07:30:20;;;;;;;1.30;0.50;;;6.70;99.90;;;;;;5114334;28;20548;-58
2023/12/09 07:32:50;;;;;;;0.90;0.50;;;6.80;99.90;;;;;;5115913;28;20866;-57
2023/12/09 07:35:18;;;;;;;1.20;0.50;;;6.80;92.70;;;;;;5111034;27;21567;-56
2023/12/09 07:37:45;;;;;;;1.02;0.60;;;6.80;84.60;;;;;;5103631;28;20449;-57
2023/12/09 07:40:13;;;;;;;1.00;0.50;;;6.70;77.20;;;;;;5110369;28;20428;-57
2023/12/09 07:42:40;;;;;;;1.70;0.60;;;6.90;90.90;;;;;;5115351;28;20416;-59
2023/12/09 07:45:09;;;;;;;1.15;0.40;;;6.90;56.50;;;;;;5114318;28;20431;-59
2023/12/09 07:47:36;;;;;;;1.80;0.50;;;6.90;53.90;;;;;;5116182;28;20420;-59
2023/12/09 07:50:05;;;;;;;1.30;0.50;;;6.90;66.10;;;;;;5113094;28;20447;-58
2023/12/09 07:52:32;;;;;;;1.30;0.50;;;6.90;50.90;;;;;;5107392;28;20432;-58
2023/12/09 07:54:59;;;;;;;0.73;0.40;;;6.80;52.40;;;;;;5109272;27;20466;-59
2023/12/09 07:57:27;;;;;;;2.20;0.50;;;6.80;56.20;;;;;;5102557;28;20428;-58
2023/12/09 07:59:54;;;;;;;0.80;0.50;;;6.80;53.40;;;;;;5110043;28;20442;-59
2023/12/09 08:02:21;;;;;;;1.27;0.60;;;6.80;51.40;;;;;;5098478;28;20774;-59
2023/12/09 08:04:48;;;;;;;1.20;0.50;;;6.80;41.40;;;;;;5108466;28;21773;-59
2023/12/09 08:07:16;;;;;;;1.88;0.50;;;6.90;43.80;;;;;;5113745;28;20741;-59
2023/12/09 08:09:43;;;;;;;1.10;0.40;;;7.20;28.80;;;;;;5114585;28;20770;-60
2023/12/09 08:12:10;;;;;;;1.77;0.40;;;7.20;1.00;;;;;;5115242;28;20828;-59
2023/12/09 08:14:38;;;;;;;1.00;0.40;;;7.10;1.00;;;;;;5111410;28;20998;-60
2023/12/09 08:17:05;;;;;;;1.00;0.45;;;7.10;10.90;;;;;;5100407;28;20428;-60
2023/12/09 08:19:32;;;;;;;0.70;0.50;;;7.00;8.30;;;;;;5107054;28;20419;-60
2023/12/09 08:22:01;;;;;;;0.73;0.40;;;6.90;11.10;;;;;;5111574;28;20418;-60
2023/12/09 08:24:29;;;;;;;2.20;0.50;;;6.90;26.20;;;;;;5113508;28;20742;-58
2023/12/09 08:26:56;;;;;;;1.10;0.47;;;6.90;21.90;;;;;;5115406;28;20420;-62
2023/12/09 08:29:23;;;;;;;0.97;0.50;;;6.90;23.60;;;;;;5109603;28;20429;-62
2023/12/09 08:31:50;;;;;;;1.90;0.50;;;6.80;14.30;;;;;;5111664;28;20431;-63
2023/12/09 08:34:18;;;;;;;0.80;0.40;;;6.80;21.30;;;;;;5105686;28;21054;-62
2023/12/09 08:36:45;;;;;;;1.55;0.50;;;6.80;29.80;;;;;;5111355;28;20434;-62
2023/12/09 08:39:14;;;;;;;1.50;0.50;;;6.80;23.10;;;;;;5107992;28;20765;-62
2023/12/09 08:41:43;;;;;;;0.85;0.50;;;6.80;25.10;;;;;;5106980;28;20430;-61
2023/12/09 08:44:10;;;;;;;1.10;0.55;;;6.80;32.10;;;;;;5101133;28;20518;-61
2023/12/09 08:46:37;;;;;;;0.90;0.50;;;6.90;34.10;;;;;;5113240;28;20416;-61
2023/12/09 08:49:04;;;;;;;1.00;0.40;;;6.80;23.50;;;;;;5112945;28;20878;-61
2023/12/09 08:51:31;;;;;;;2.05;0.50;;;6.90;30.40;;;;;;5103544;28;20428;-61
2023/12/09 08:53:58;;;;;;;3.00;0.70;;;7.00;33.10;;;;;;5111760;28;20428;-61
2023/12/09 08:56:25;;;;;;;2.60;1.00;;;7.10;26.00;;;;;;5111319;28;20998;-61
2023/12/09 08:58:54;;;;;;;1.20;0.50;;;7.40;17.50;;;;;;5111504;28;20424;-61
2023/12/09 09:01:21;;;;;;;1.20;0.50;;;7.50;2.10;;;;;;5112324;28;20823;-61
2023/12/09 09:03:48;;;;;;;1.70;0.50;;;7.50;1.00;;;;;;5105902;28;20493;-61
2023/12/09 09:06:15;;;;;;;1.30;0.50;;;7.50;1.00;;;;;;5110430;28;20412;-61
2023/12/09 09:08:44;;;;;;;1.33;0.50;;;7.60;1.00;;;;;;5107948;28;20419;-61
2023/12/09 09:11:12;;;;;;;1.80;0.40;;;7.70;1.00;;;;;;5108755;27;20472;-61
2023/12/09 09:13:39;;;;;;;1.50;0.50;;;7.70;1.00;;;;;;5110793;28;20851;-61
2023/12/09 09:16:08;;;;;;;1.25;0.40;;;7.60;1.00;;;;;;5110458;28;21045;-61
2023/12/09 09:18:35;;;;;;;1.57;0.40;;;7.60;1.00;;;;;;5113554;28;20430;-61
2023/12/09 09:21:02;;;;;;;2.33;0.50;;;7.70;1.00;;;;;;5121071;27;20442;-60
2023/12/09 09:23:30;;;;;;;1.80;0.50;;;7.70;1.00;;;;;;5111108;28;21072;-60
2023/12/09 09:25:57;;;;;;;1.10;0.50;;;7.60;1.00;;;;;;5108800;28;20477;-60
2023/12/09 09:28:24;;;;;;;1.40;0.50;;;7.60;1.00;;;;;;5113413;28;20448;-61
2023/12/09 09:30:51;;;;;;;1.10;0.50;;;7.60;1.00;;;;;;5118561;28;20449;-61
2023/12/09 09:33:20;;;;;;;1.40;0.40;;;7.60;1.00;;;;;;5113757;28;20432;-61
2023/12/09 09:35:51;;;;;;;4.03;0.50;;;7.60;1.00;;;;;;5112871;28;20432;-60
2023/12/09 09:38:18;;;;;;;0.70;0.40;;;7.60;1.00;;;;;;5112205;28;20517;-63
2023/12/09 09:40:45;;;;;;;0.75;0.40;;;7.70;1.00;;;;;;5100439;28;20436;-62
2023/12/09 09:43:21;;;;;;;1.60;0.50;;;7.80;1.00;;;;;;5112419;28;20422;-62
2023/12/09 09:45:49;;;;;;;2.30;0.40;;;7.70;1.00;;;;;;5107311;28;20743;-62
2023/12/09 09:48:21;;;;;;;0.90;0.40;;;7.80;1.00;;;;;;5109443;28;20464;-63
2023/12/09 09:50:53;;;;;;;2.08;0.45;;;7.70;1.00;;;;;;5112710;28;20443;-63
2023/12/09 09:53:25;;;;;;;1.00;0.40;;;7.70;1.00;;;;;;5103120;28;20427;-63
2023/12/09 09:55:53;;;;;;;0.90;0.50;;;7.80;1.00;;;;;;5112612;28;20861;-63
2023/12/09 09:58:20;;;;;;;1.10;0.40;;;7.80;1.00;;;;;;5120127;28;20441;-63
2023/12/09 10:00:48;;;;;;;0.80;0.40;;;7.80;1.00;;;;;;5105078;28;20468;-63
2023/12/09 10:03:15;;;;;;;0.70;0.35;;;7.80;1.00;;;;;;5110099;28;20432;-63
2023/12/09 10:05:44;;;;;;;0.70;0.40;;;7.80;1.00;;;;;;5111660;28;20522;-63
2023/12/09 10:08:11;;;;;;;0.90;0.40;;;7.70;1.00;;;;;;5123825;27;20458;-63
2023/12/09 10:10:39;;;;;;;1.00;0.40;;;7.70;1.00;;;;;;5127235;27;20441;-64
2023/12/09 10:13:06;;;;;;;1.58;0.40;;;7.70;1.00;;;;;;5124409;27;20446;-64
2023/12/09 10:15:33;;;;;;;1.83;0.40;;;7.80;1.00;;;;;;5114755;27;20424;-63
2023/12/09 10:18:03;;;;;;;3.80;0.70;;;7.80;1.00;;;;;;5111933;28;20443;-63
2023/12/09 10:20:31;;;;;;;1.30;0.50;;;7.80;1.00;;;;;;5121396;27;20432;-63
2023/12/09 10:23:01;;;;;;;1.10;0.40;;;7.90;1.00;;;;;;5114138;28;20432;-64
2023/12/09 10:25:29;;;;;;;1.50;0.50;;;7.90;1.00;;;;;;5118212;27;20457;-64
2023/12/09 10:27:57;;;;;;;0.80;0.50;;;7.90;1.00;;;;;;5117071;27;20431;-63
2023/12/09 10:30:24;;;;;;;1.20;0.50;;;7.90;1.00;;;;;;5111344;27;20447;-62
2023/12/09 10:32:53;;;;;;;1.52;0.50;;;8.00;1.00;;;;;;5112057;27;20443;-63
2023/12/09 10:35:22;;;;;;;0.80;0.40;;;8.00;1.00;;;;;;5109869;28;20439;-63
2023/12/09 10:37:50;;;;;;;0.90;0.40;;;8.10;1.00;;;;;;5112258;28;20468;-62
2023/12/09 10:40:20;;;;;;;1.90;0.60;;;8.10;1.00;;;;;;5109131;27;20440;-62
2023/12/09 10:42:47;;;;;;;1.10;0.50;;;8.10;1.00;;;;;;5109220;27;20947;-62
2023/12/09 10:45:14;;;;;;;1.20;0.60;;;8.10;1.00;;;;;;5121912;27;20439;-62
2023/12/09 10:47:41;;;;;;;1.00;0.50;;;8.20;1.00;;;;;;5114688;27;20902;-62
2023/12/09 10:50:10;;;;;;;1.40;0.50;;;8.20;1.00;;;;;;5115552;27;20441;-62
2023/12/09 10:52:37;;;;;;;1.20;0.60;;;8.20;1.00;;;;;;5114550;27;20443;-62
2023/12/09 10:55:05;;;;;;;1.48;0.50;;;8.30;1.00;;;;;;5102912;28;20535;-62
2023/12/09 10:57:34;;;;;;;1.48;0.50;;;8.40;1.00;;;;;;5115897;27;20432;-63
2023/12/09 11:00:09;;;;;;;2.30;0.60;;;8.40;1.00;;;;;;5110257;27;20431;-62
2023/12/09 11:02:37;;;;;;;0.80;0.60;;;8.40;1.00;;;;;;5107288;28;20528;-64
2023/12/09 11:05:05;;;;;;;2.60;0.70;;;8.40;1.00;;;;;;5112431;27;20459;-64
2023/12/09 11:07:35;;;;;;;1.20;0.50;;;8.40;1.00;;;;;;5109074;27;20914;-60
2023/12/09 11:10:06;;;;;;;0.95;0.50;;;8.40;1.00;;;;;;5105599;27;20440;-61
2023/12/09 11:12:36;;;;;;;1.90;0.50;;;8.30;1.00;;;;;;5113129;27;20432;-61
2023/12/09 11:15:17;;;;;;;0.80;0.40;;;8.40;1.00;;;;;;5110743;27;21077;-61
2023/12/09 11:17:45;;;;;;;1.20;0.50;;;8.40;1.00;;;;;;5100976;27;20440;-61
2023/12/09 11:20:14;;;;;;;0.60;0.40;;;8.40;1.00;;;;;;5103462;28;20440;-61
2023/12/09 11:22:43;;;;;;;1.58;0.50;;;8.40;1.00;;;;;;5109078;27;20430;-61
2023/12/09 11:25:12;;;;;;;1.00;0.43;;;8.40;1.00;;;;;;5106501;27;21178;-62
2023/12/09 11:27:40;;;;;;;0.75;0.50;;;8.40;1.00;;;;;;5110855;27;20434;-62
2023/12/09 11:30:28;;;;;;;0.80;0.50;;;8.50;1.00;;;;;;5107628;28;20435;-62
2023/12/09 11:32:56;;;;;;;2.00;0.45;;;8.50;1.00;;;;;;5107966;28;20430;-61
2023/12/09 11:35:24;;;;;;;1.17;0.50;;;8.50;1.00;;;;;;5108826;28;20435;-59
2023/12/09 11:37:52;;;;;;;0.80;0.50;;;8.60;1.00;;;;;;5114285;27;20460;-59
2023/12/09 11:40:19;;;;;;;1.02;0.50;;;8.50;1.00;;;;;;5116453;27;20428;-59
2023/12/09 11:42:50;;;;;;;0.98;0.50;;;8.50;1.00;;;;;;5105575;28;20845;-60
2023/12/09 11:45:17;;;;;;;0.90;0.50;;;8.50;1.00;;;;;;5106898;28;20426;-61
2023/12/09 11:47:46;;;;;;;0.88;0.40;;;8.50;1.00;;;;;;5112203;28;20420;-61
2023/12/09 11:50:16;;;;;;;1.20;0.50;;;8.50;1.00;;;;;;5106990;27;20414;-60
2023/12/09 11:52:44;;;;;;;1.20;0.50;;;8.50;1.00;;;;;;5111786;28;20424;-61
2023/12/09 11:55:12;;;;;;;1.10;0.50;;;8.50;1.00;;;;;;5104694;28;20428;-61
2023/12/09 11:57:40;;;;;;;0.90;0.50;;;8.50;1.00;;;;;;5108483;28;20424;-60
2023/12/09 12:00:11;;;;;;;0.70;0.50;;;8.40;1.00;;;;;;5114322;27;20438;-62
2023/12/09 12:02:42;;;;;;;2.50;0.50;;;8.50;1.00;;;;;;5107441;27;20451;-62
2023/12/09 12:05:11;;;;;;;1.80;0.60;;;8.50;1.00;;;;;;5110222;28;20712;-60
2023/12/09 12:07:38;;;;;;;0.90;0.60;;;8.60;1.00;;;;;;5108706;28;20489;-60
2023/12/09 12:10:07;;;;;;;1.40;0.60;;;8.60;1.00;;;;;;5112384;27;20839;-60
2023/12/09 12:12:35;;;;;;;0.90;0.50;;;8.70;1.00;;;;;;5113955;28;20427;-61
2023/12/09 12:15:03;;;;;;;0.90;0.50;;;8.60;1.00;;;;;;5113258;28;20424;-60
2023/12/09 12:17:39;;;;;;;1.00;0.60;;;8.50;1.00;;;;;;5106289;28;20439;-61
2023/12/09 12:20:10;;;;;;;0.90;0.50;;;8.50;1.00;;;;;;5097966;28;20420;-61
2023/12/09 12:22:37;;;;;;;1.20;0.60;;;8.40;1.00;;;;;;5111615;28;21043;-61
2023/12/09 12:25:08;;;;;;;0.97;0.50;;;8.40;1.00;;;;;;5109543;28;20585;-61
2023/12/09 12:27:36;;;;;;;0.82;0.60;;;8.40;1.00;;;;;;5113989;28;20485;-61
2023/12/09 12:30:08;;;;;;;5.95;2.47;;;8.50;1.00;;;;;;5105243;28;20762;-61
2023/12/09 12:32:37;;;;;;;1.05;0.63;;;8.60;1.00;;;;;;5115376;27;20422;-61
2023/12/09 12:35:06;;;;;;;1.00;0.60;;;8.60;1.00;;;;;;5111909;28;20527;-61
2023/12/09 12:37:34;;;;;;;1.00;0.60;;;8.60;1.00;;;;;;5103601;28;20461;-61
2023/12/09 12:40:01;;;;;;;1.35;0.60;;;8.60;1.00;;;;;;5112437;28;20514;-61
2023/12/09 12:42:29;;;;;;;1.00;0.65;;;8.60;1.00;;;;;;5108132;28;20480;-62
2023/12/09 12:44:56;;;;;;;1.10;0.63;;;8.70;1.00;;;;;;5112806;28;20457;-61
2023/12/09 12:47:23;;;;;;;0.93;0.60;;;8.70;1.00;;;;;;5113817;28;20508;-61
2023/12/09 12:49:51;;;;;;;0.80;0.50;;;8.80;1.00;;;;;;5114068;28;20831;-61
2023/12/09 12:52:19;;;;;;;0.80;0.40;;;8.90;1.00;;;;;;5108650;28;20438;-62
2023/12/09 12:54:50;;;;;;;0.90;0.50;;;8.90;1.00;;;;;;5109497;28;20427;-62
2023/12/09 12:57:17;;;;;;;0.98;0.60;;;8.90;1.00;;;;;;5110907;28;20974;-62
2023/12/09 12:59:44;;;;;;;0.93;0.50;;;8.90;1.00;;;;;;5113803;28;20530;-62
2023/12/09 13:02:11;;;;;;;1.20;0.50;;;8.90;1.00;;;;;;5105318;27;20438;-62
2023/12/09 13:04:40;;;;;;;0.90;0.50;;;8.90;1.00;;;;;;5099230;28;20426;-62